Decoded Metar for OIFM (ESFAHAN in IRAN) (IATA:N/A) | Meteo·Mobile Aviation Weather
aviador You're here:

OIFM Decoded Metar

ESFAHAN in IRAN
Report Time2018-11-16 18:30:00
UTC Time2018-11-16 18:51:04
Flight Rules vfr VFR
WindCalm
Visibility9999 m
Phenomena:N/A
Clouds:N/A
Expected CloudBase > 400 ft AGL from Temp-Dew spread
CeilingNone
Temp07°C (ISA +2)
Dew Point06°C (93% RH)
AAT6.1°C
QNH1024 hPa
Density Alt5,075 ft
Elevation5,059 ft
Report Wrong Elevation
Raw Report
METAR OIFM 161830Z 00000KT CAVOK 07/06 Q1024 A3026=

Extra information for OIFM:More info

Metar Taf Metar & Taf Last 4 Metars F.Rules Stats Wind Profile Meteogram Temp Stats Airport Information Weather charts Add Link Nearby VenuesMetar ALERT Operation Metar Decoded Social comments